createdAt,value
2023-03-25T00:00:18.095Z,60.28
2023-03-25T00:02:48.135Z,60.44
2023-03-25T00:05:18.575Z,60.52
2023-03-25T00:07:50.420Z,60.56
2023-03-25T00:10:19.350Z,60.60
2023-03-25T00:12:47.020Z,60.29
2023-03-25T00:15:14.299Z,60.60
2023-03-25T00:17:41.510Z,60.56
2023-03-25T00:20:11.184Z,60.52
2023-03-25T00:22:40.552Z,60.48
2023-03-25T00:25:14.684Z,60.52
2023-03-25T00:27:41.894Z,60.95
2023-03-25T00:30:10.203Z,61.01
2023-03-25T00:32:37.426Z,61.07
2023-03-25T00:35:05.079Z,61.02
2023-03-25T00:37:32.295Z,61.08
2023-03-25T00:39:59.599Z,61.02
2023-03-25T00:42:26.871Z,60.77
2023-03-25T00:44:54.574Z,60.87
2023-03-25T00:47:21.903Z,61.29
2023-03-25T00:49:50.069Z,61.19
2023-03-25T00:52:17.464Z,61.19
2023-03-25T00:54:44.955Z,61.29
2023-03-25T00:57:12.357Z,61.07
2023-03-25T00:59:39.599Z,61.15
2023-03-25T01:02:06.993Z,61.05
2023-03-25T01:04:35.572Z,61.12
2023-03-25T01:07:02.848Z,60.88
2023-03-25T01:09:30.791Z,60.93
2023-03-25T01:11:58.329Z,61.08
2023-03-25T01:14:25.704Z,61.13
2023-03-25T01:16:53.344Z,61.10
2023-03-25T01:19:21.651Z,61.04
2023-03-25T01:21:49.082Z,61.18
2023-03-25T01:24:16.353Z,61.04
2023-03-25T01:26:45.274Z,61.35
2023-03-25T01:29:16.195Z,61.67
2023-03-25T01:31:44.474Z,61.40
2023-03-25T01:34:13.517Z,61.36
2023-03-25T01:36:40.808Z,61.30
2023-03-25T01:39:09.202Z,61.42
2023-03-25T01:41:49.240Z,61.33
2023-03-25T01:44:20.311Z,61.28
2023-03-25T01:46:48.758Z,61.13
2023-03-25T01:49:23.942Z,61.34
2023-03-25T01:52:00.991Z,61.52
2023-03-25T01:54:28.828Z,61.48
2023-03-25T01:56:56.741Z,61.70
2023-03-25T01:59:28.076Z,61.54
2023-03-25T02:02:00.406Z,61.50
2023-03-25T02:05:03.675Z,61.54
2023-03-25T02:07:35.670Z,61.48
2023-03-25T02:10:09.693Z,61.37
2023-03-25T02:12:36.845Z,61.47
2023-03-25T02:15:08.117Z,61.38
2023-03-25T02:18:19.493Z,61.37
2023-03-25T02:21:23.002Z,61.16
2023-03-25T02:24:41.543Z,61.19
2023-03-25T02:27:23.676Z,61.34
2023-03-25T02:30:10.562Z,61.35
2023-03-25T02:33:14.108Z,61.48
2023-03-25T02:36:10.332Z,61.37
2023-03-25T02:39:08.970Z,61.09
2023-03-25T02:42:26.672Z,61.12
2023-03-25T02:45:02.456Z,61.24
2023-03-25T02:47:41.260Z,60.98
2023-03-25T02:50:30.102Z,60.77
2023-03-25T02:53:03.890Z,60.51
2023-03-25T02:55:32.759Z,60.70
2023-03-25T02:58:04.914Z,60.73
2023-03-25T03:00:33.922Z,60.46
2023-03-25T03:03:05.402Z,60.63
2023-03-25T03:05:44.326Z,60.50
2023-03-25T03:08:30.761Z,60.46
2023-03-25T03:11:35.815Z,60.43
2023-03-25T03:14:32.956Z,60.47
2023-03-25T03:17:25.690Z,60.14
2023-03-25T03:20:44.187Z,60.00
2023-03-25T03:23:51.457Z,60.16
2023-03-25T03:26:58.507Z,60.01
2023-03-25T03:29:38.726Z,59.71
2023-03-25T03:32:20.126Z,59.91
2023-03-25T03:35:01.220Z,60.19
2023-03-25T03:37:42.050Z,60.36
2023-03-25T03:40:19.962Z,60.24
2023-03-25T03:42:55.208Z,60.34
2023-03-25T03:45:33.883Z,60.22
2023-03-25T03:48:10.904Z,60.27
2023-03-25T03:50:49.496Z,60.32
2023-03-25T03:53:29.472Z,60.30
2023-03-25T03:56:06.497Z,60.52
2023-03-25T03:58:42.480Z,60.72
2023-03-25T04:01:32.781Z,61.01
2023-03-25T04:04:06.333Z,60.98
2023-03-25T04:07:21.728Z,59.09
2023-03-25T04:10:07.758Z,59.22
2023-03-25T04:12:41.036Z,58.68
2023-03-25T04:15:09.320Z,58.71
2023-03-25T04:17:36.635Z,58.33
2023-03-25T04:20:04.662Z,57.85
2023-03-25T04:22:32.034Z,58.06
2023-03-25T04:24:59.207Z,58.23
2023-03-25T04:27:26.813Z,57.96
2023-03-25T04:29:53.953Z,57.67
2023-03-25T04:32:21.150Z,58.20
2023-03-25T04:34:48.502Z,58.67
2023-03-25T04:37:15.653Z,58.97
2023-03-25T04:39:42.835Z,59.43
2023-03-25T04:42:10.506Z,59.32
2023-03-25T04:44:37.661Z,59.33
2023-03-25T04:47:08.020Z,59.85
2023-03-25T04:49:37.587Z,60.08
2023-03-25T04:52:05.054Z,59.74
2023-03-25T04:54:32.218Z,59.73
2023-03-25T04:56:59.392Z,59.59
2023-03-25T04:59:26.642Z,59.43
2023-03-25T05:01:54.062Z,59.44
2023-03-25T05:04:21.284Z,59.11
2023-03-25T05:06:50.395Z,59.12
2023-03-25T05:09:21.684Z,58.97
2023-03-25T05:11:51.635Z,58.67
2023-03-25T05:14:21.653Z,58.91
2023-03-25T05:16:48.976Z,59.20
2023-03-25T05:19:17.396Z,59.26
2023-03-25T05:21:45.022Z,59.36
2023-03-25T05:24:13.676Z,59.57
2023-03-25T05:26:42.734Z,59.50
2023-03-25T05:29:14.513Z,59.43
2023-03-25T05:31:46.662Z,59.70
2023-03-25T05:34:14.922Z,59.48
2023-03-25T05:36:42.192Z,59.64
2023-03-25T05:39:09.845Z,59.65
2023-03-25T05:41:37.048Z,59.67
2023-03-25T05:44:06.328Z,59.81
2023-03-25T05:46:33.869Z,59.56
2023-03-25T05:49:01.388Z,59.63
2023-03-25T05:51:32.672Z,60.09
2023-03-25T05:54:00.402Z,59.67
2023-03-25T05:56:27.719Z,59.17
2023-03-25T05:58:55.357Z,59.24
2023-03-25T06:01:32.751Z,59.37
2023-03-25T06:04:03.145Z,59.19
2023-03-25T06:06:32.515Z,58.78
2023-03-25T06:08:59.809Z,58.04
2023-03-25T06:11:27.062Z,58.64
2023-03-25T06:13:54.287Z,58.84
2023-03-25T06:16:24.488Z,58.84
2023-03-25T06:18:51.995Z,58.77
2023-03-25T06:21:20.474Z,58.32
2023-03-25T06:23:47.806Z,58.25
2023-03-25T06:26:22.178Z,58.77
2023-03-25T06:28:49.583Z,59.06
2023-03-25T06:31:21.599Z,58.75
2023-03-25T06:33:50.857Z,58.77
2023-03-25T06:36:22.650Z,58.66
2023-03-25T06:38:51.389Z,58.85
2023-03-25T06:41:20.785Z,59.39
2023-03-25T06:43:49.041Z,59.50
2023-03-25T06:46:16.788Z,59.73
2023-03-25T06:48:44.279Z,59.38
2023-03-25T06:51:23.127Z,59.27
2023-03-25T06:53:50.399Z,60.68
2023-03-25T06:56:18.588Z,60.56
2023-03-25T06:58:46.151Z,60.50
2023-03-25T07:01:13.637Z,60.34
2023-03-25T07:03:40.866Z,60.04
2023-03-25T07:06:08.673Z,59.74
2023-03-25T07:08:37.239Z,59.07
2023-03-25T07:11:07.722Z,58.80
2023-03-25T07:13:35.576Z,58.37
2023-03-25T07:16:03.225Z,58.53
2023-03-25T07:18:30.955Z,58.34
2023-03-25T07:20:58.355Z,58.13
2023-03-25T07:23:26.233Z,58.35
2023-03-25T07:25:53.961Z,58.10
2023-03-25T07:28:21.198Z,57.85
2023-03-25T07:30:48.538Z,57.53
2023-03-25T07:33:15.796Z,57.53
2023-03-25T07:35:46.859Z,57.83
2023-03-25T07:38:14.293Z,57.49
2023-03-25T07:40:41.616Z,57.11
2023-03-25T07:43:08.997Z,57.73
2023-03-25T07:45:56.057Z,57.49
2023-03-25T07:48:23.272Z,57.10
2023-03-25T07:50:52.991Z,57.66
2023-03-25T07:53:21.756Z,57.63
2023-03-25T07:55:49.146Z,57.46
2023-03-25T07:58:17.664Z,56.80
2023-03-25T08:00:45.195Z,57.05
2023-03-25T08:03:14.223Z,56.82
2023-03-25T08:05:48.957Z,56.97
2023-03-25T08:08:16.502Z,56.63
2023-03-25T08:10:45.315Z,56.26
2023-03-25T08:13:13.339Z,55.51
2023-03-25T08:15:40.947Z,55.50
2023-03-25T08:18:08.521Z,56.12
2023-03-25T08:20:36.188Z,57.28
2023-03-25T08:23:03.755Z,56.71
2023-03-25T08:25:31.694Z,56.37
2023-03-25T08:27:58.974Z,56.31
2023-03-25T08:30:26.152Z,55.31
2023-03-25T08:32:53.354Z,55.94
2023-03-25T08:35:24.328Z,56.26
2023-03-25T08:37:51.861Z,55.56
2023-03-25T08:40:19.221Z,56.09
2023-03-25T08:42:46.970Z,56.74
2023-03-25T08:45:14.254Z,56.47
2023-03-25T08:47:41.410Z,56.66
2023-03-25T08:50:09.464Z,57.34
2023-03-25T08:52:36.810Z,56.98
2023-03-25T08:55:06.168Z,56.88
2023-03-25T08:57:35.209Z,56.84
2023-03-25T09:00:04.534Z,56.91
2023-03-25T09:02:31.827Z,56.06
2023-03-25T09:04:59.077Z,55.41
2023-03-25T09:07:26.353Z,55.04
2023-03-25T09:09:53.569Z,55.67
2023-03-25T09:12:20.776Z,55.81
2023-03-25T09:14:48.055Z,55.63
2023-03-25T09:17:15.352Z,55.74
2023-03-25T09:19:42.509Z,54.83
2023-03-25T09:22:09.822Z,53.89
2023-03-25T09:24:36.996Z,53.85
2023-03-25T09:27:04.436Z,53.21
2023-03-25T09:29:31.687Z,53.52
2023-03-25T09:31:59.704Z,52.99
2023-03-25T09:34:28.314Z,49.98
2023-03-25T09:36:56.511Z,50.08
2023-03-25T09:39:23.980Z,48.11
2023-03-25T09:42:42.774Z,48.67
2023-03-25T09:45:34.577Z,48.56
2023-03-25T09:48:30.038Z,48.57
2023-03-25T09:51:07.493Z,49.02
2023-03-25T09:53:56.257Z,49.54
2023-03-25T09:56:28.565Z,49.41
2023-03-25T09:59:06.908Z,48.88
2023-03-25T10:01:58.994Z,47.03
2023-03-25T10:04:44.286Z,45.75
2023-03-25T10:07:36.919Z,45.41
2023-03-25T10:10:42.471Z,46.56
2023-03-25T10:13:27.519Z,43.13
2023-03-25T10:16:19.755Z,42.43
2023-03-25T10:19:45.716Z,41.26
2023-03-25T10:22:48.119Z,40.59
2023-03-25T10:25:23.933Z,40.17
2023-03-25T10:27:52.913Z,37.46
2023-03-25T10:30:30.245Z,38.84
2023-03-25T10:33:05.983Z,40.58
2023-03-25T10:35:46.015Z,40.24
2023-03-25T10:38:22.470Z,38.41
2023-03-25T10:40:56.088Z,33.90
2023-03-25T10:43:42.672Z,32.62
2023-03-25T10:46:51.607Z,34.45
2023-03-25T10:49:26.972Z,31.75
2023-03-25T10:51:54.844Z,28.38
2023-03-25T10:54:28.524Z,23.46
2023-03-25T10:57:03.634Z,22.87
2023-03-25T11:00:03.391Z,21.37
2023-03-25T11:02:33.535Z,21.36
2023-03-25T11:05:07.560Z,21.41
2023-03-25T11:07:42.043Z,21.45
2023-03-25T11:10:30.957Z,19.85
2023-03-25T11:12:58.680Z,19.45
2023-03-25T11:15:38.525Z,19.41
2023-03-25T11:18:16.146Z,19.17
2023-03-25T11:21:02.756Z,19.74
2023-03-25T11:23:49.150Z,19.27
2023-03-25T11:26:36.338Z,19.19
2023-03-25T11:29:27.993Z,19.08
2023-03-25T11:32:32.725Z,19.96
2023-03-25T11:35:14.490Z,21.20
2023-03-25T11:37:55.881Z,22.74
2023-03-25T11:40:24.602Z,23.83
2023-03-25T11:42:58.936Z,24.04
2023-03-25T11:45:37.461Z,22.62
2023-03-25T11:48:17.270Z,22.11
2023-03-25T11:50:54.223Z,21.87
2023-03-25T11:53:26.183Z,22.01
2023-03-25T11:56:05.178Z,21.97
2023-03-25T11:58:37.021Z,23.30
2023-03-25T12:01:25.497Z,24.21
2023-03-25T12:04:05.521Z,25.62
2023-03-25T12:06:33.440Z,25.98
2023-03-25T12:09:10.411Z,25.32
2023-03-25T12:11:58.045Z,25.34
2023-03-25T12:14:36.263Z,25.92
2023-03-25T12:17:40.269Z,26.24
2023-03-25T12:21:11.038Z,27.05
2023-03-25T12:24:02.638Z,27.26
2023-03-25T12:27:11.126Z,27.83
2023-03-25T12:30:27.330Z,28.93
2023-03-25T12:33:29.503Z,29.66
2023-03-25T12:36:33.313Z,29.69
2023-03-25T12:39:29.307Z,29.67
2023-03-25T12:42:33.912Z,31.12
2023-03-25T12:45:30.597Z,31.34
2023-03-25T12:48:19.824Z,31.14
2023-03-25T12:51:19.506Z,31.47
2023-03-25T12:54:13.458Z,31.21
2023-03-25T12:57:00.636Z,30.20
2023-03-25T12:59:38.801Z,29.15
2023-03-25T13:02:15.681Z,30.13
2023-03-25T13:05:06.183Z,31.87
2023-03-25T13:07:43.074Z,32.21
2023-03-25T13:10:23.436Z,32.09
2023-03-25T13:12:56.408Z,32.80
2023-03-25T13:15:44.066Z,33.56
2023-03-25T13:18:22.915Z,33.19
2023-03-25T13:21:13.398Z,29.64
2023-03-25T13:23:47.607Z,30.10
2023-03-25T13:26:21.107Z,31.17
2023-03-25T13:28:50.993Z,28.71
2023-03-25T13:31:23.381Z,28.40
2023-03-25T13:34:28.368Z,28.84
2023-03-25T13:37:10.901Z,29.46
2023-03-25T13:40:27.913Z,25.47
2023-03-25T13:43:32.590Z,24.84
2023-03-25T13:46:19.816Z,25.16
2023-03-25T13:48:59.460Z,24.51
2023-03-25T13:51:27.132Z,24.66
2023-03-25T13:54:08.342Z,24.90
2023-03-25T13:57:03.328Z,25.22
2023-03-25T13:59:49.249Z,24.96
2023-03-25T14:02:34.144Z,24.73
2023-03-25T14:05:20.874Z,25.59
2023-03-25T14:08:29.646Z,25.50
2023-03-25T14:11:32.142Z,25.29
2023-03-25T14:14:15.813Z,25.18
2023-03-25T14:16:52.075Z,25.92
2023-03-25T14:19:42.791Z,25.98
2023-03-25T14:22:24.337Z,25.68
2023-03-25T14:24:52.331Z,25.09
2023-03-25T14:27:31.228Z,25.17
2023-03-25T14:30:18.634Z,25.99
2023-03-25T14:32:46.005Z,26.03
2023-03-25T14:35:32.082Z,26.30
2023-03-25T14:38:08.694Z,26.59
2023-03-25T14:41:02.176Z,27.01
2023-03-25T14:43:37.925Z,26.89
2023-03-25T14:46:11.173Z,26.41
2023-03-25T14:48:45.061Z,26.18
2023-03-25T14:51:27.515Z,25.84
2023-03-25T14:54:16.573Z,25.09
2023-03-25T14:57:15.973Z,25.40
2023-03-25T15:00:02.115Z,24.36
2023-03-25T15:02:33.710Z,24.47
2023-03-25T15:05:19.022Z,23.92
2023-03-25T15:07:57.857Z,23.94
2023-03-25T15:10:42.959Z,23.24
2023-03-25T15:13:21.730Z,21.91
2023-03-25T15:15:48.959Z,21.81
2023-03-25T15:18:34.909Z,21.43
2023-03-25T15:21:09.037Z,21.33
2023-03-25T15:23:46.737Z,21.20
2023-03-25T15:26:42.317Z,21.22
2023-03-25T15:29:55.518Z,20.81
2023-03-25T15:33:13.183Z,20.90
2023-03-25T15:36:41.947Z,21.20
2023-03-25T15:39:55.797Z,21.67
2023-03-25T15:42:53.532Z,21.64
2023-03-25T15:45:46.806Z,22.06
2023-03-25T15:49:27.964Z,21.05
2023-03-25T15:52:11.769Z,21.17
2023-03-25T15:54:56.871Z,20.93
2023-03-25T15:57:44.548Z,21.22
2023-03-25T16:00:27.165Z,21.02
2023-03-25T16:03:24.795Z,21.71
2023-03-25T16:06:02.623Z,21.82
2023-03-25T16:08:40.310Z,22.21
2023-03-25T16:11:19.619Z,22.81
2023-03-25T16:14:00.768Z,22.80
2023-03-25T16:16:30.934Z,22.87
2023-03-25T16:18:58.128Z,22.81
2023-03-25T16:21:30.250Z,22.94
2023-03-25T16:24:06.138Z,23.72
2023-03-25T16:26:46.490Z,23.32
2023-03-25T16:29:24.464Z,23.62
2023-03-25T16:32:02.398Z,23.87
2023-03-25T16:34:36.321Z,24.26
2023-03-25T16:37:05.949Z,24.29
2023-03-25T16:39:39.077Z,24.48
2023-03-25T16:42:19.203Z,24.08
2023-03-25T16:44:47.200Z,24.28
2023-03-25T16:47:16.839Z,24.34
2023-03-25T16:49:51.048Z,23.72
2023-03-25T16:52:25.913Z,24.63
2023-03-25T16:54:52.994Z,24.65
2023-03-25T16:57:26.247Z,25.22
2023-03-25T16:59:55.475Z,25.06
2023-03-25T17:02:38.147Z,24.95
2023-03-25T17:05:29.149Z,25.12
2023-03-25T17:08:07.747Z,24.77
2023-03-25T17:10:55.580Z,25.38
2023-03-25T17:13:39.360Z,25.36
2023-03-25T17:16:08.284Z,25.04
2023-03-25T17:18:37.983Z,25.55
2023-03-25T17:21:19.992Z,25.66
2023-03-25T17:23:47.395Z,25.82
2023-03-25T17:26:19.741Z,26.21
2023-03-25T17:28:55.806Z,26.12
2023-03-25T17:31:37.348Z,26.14
2023-03-25T17:34:18.983Z,27.46
2023-03-25T17:36:56.113Z,27.04
2023-03-25T17:39:26.792Z,27.58
2023-03-25T17:42:04.060Z,27.00
2023-03-25T17:44:39.731Z,27.02
2023-03-25T17:47:12.884Z,26.88
2023-03-25T17:49:40.375Z,28.57
2023-03-25T17:52:07.846Z,27.95
2023-03-25T17:54:36.301Z,28.55
2023-03-25T17:57:23.734Z,28.95
2023-03-25T17:59:52.097Z,28.33
2023-03-25T18:02:19.444Z,29.19
2023-03-25T18:04:46.556Z,29.29
2023-03-25T18:07:13.838Z,29.31
2023-03-25T18:09:41.285Z,30.22
2023-03-25T18:12:08.818Z,30.69
2023-03-25T18:14:36.254Z,30.38
2023-03-25T18:17:04.015Z,31.42
2023-03-25T18:19:32.344Z,31.83
2023-03-25T18:22:06.874Z,31.35
2023-03-25T18:24:41.226Z,31.20
2023-03-25T18:27:11.388Z,31.56
2023-03-25T18:29:38.972Z,33.37
2023-03-25T18:32:06.343Z,33.48
2023-03-25T18:34:33.636Z,33.63
2023-03-25T18:37:00.852Z,33.80
2023-03-25T18:39:28.752Z,34.71
2023-03-25T18:41:55.902Z,35.10
2023-03-25T18:44:23.052Z,35.13
2023-03-25T18:46:50.267Z,35.14
2023-03-25T18:49:19.916Z,35.38
2023-03-25T18:51:47.709Z,35.38
2023-03-25T18:54:16.239Z,36.03
2023-03-25T18:56:44.146Z,35.89
2023-03-25T18:59:15.950Z,36.04
2023-03-25T19:01:43.180Z,35.77
2023-03-25T19:04:10.453Z,35.86
2023-03-25T19:06:37.714Z,35.99
2023-03-25T19:09:05.988Z,36.98
2023-03-25T19:11:33.197Z,37.05
2023-03-25T19:14:00.603Z,37.07
2023-03-25T19:16:28.018Z,36.79
2023-03-25T19:18:55.250Z,36.83
2023-03-25T19:21:22.393Z,36.66
2023-03-25T19:23:50.587Z,37.17
2023-03-25T19:26:17.987Z,37.85
2023-03-25T19:28:45.339Z,37.76
2023-03-25T19:31:14.479Z,37.52
2023-03-25T19:33:41.772Z,37.58
2023-03-25T19:36:15.674Z,38.06
2023-03-25T19:38:43.203Z,38.15
2023-03-25T19:41:15.168Z,38.30
2023-03-25T19:43:42.553Z,38.27
2023-03-25T19:46:09.905Z,38.51
2023-03-25T19:48:37.418Z,38.84
2023-03-25T19:51:04.974Z,39.22
2023-03-25T19:53:32.261Z,38.90
2023-03-25T19:56:05.222Z,38.69
2023-03-25T19:58:33.749Z,39.05
2023-03-25T20:01:00.907Z,39.00
2023-03-25T20:03:28.359Z,39.05
2023-03-25T20:06:03.668Z,39.19
2023-03-25T20:08:30.943Z,39.54
2023-03-25T20:10:58.727Z,39.90
2023-03-25T20:13:26.743Z,40.03
2023-03-25T20:15:54.538Z,39.93
2023-03-25T20:18:22.062Z,39.87
2023-03-25T20:20:49.603Z,40.41
2023-03-25T20:23:17.175Z,40.66
2023-03-25T20:25:44.701Z,40.37
2023-03-25T20:28:12.212Z,40.32
2023-03-25T20:30:39.819Z,40.61
2023-03-25T20:33:07.371Z,40.71
2023-03-25T20:35:34.836Z,40.89
2023-03-25T20:38:02.213Z,40.90
2023-03-25T20:40:41.513Z,40.99
2023-03-25T20:43:11.496Z,41.31
2023-03-25T20:45:39.381Z,41.06
2023-03-25T20:48:07.033Z,41.23
2023-03-25T20:50:34.623Z,41.55
2023-03-25T20:53:02.183Z,41.78
2023-03-25T20:55:29.717Z,41.76
2023-03-25T20:57:57.274Z,41.58
2023-03-25T21:00:24.807Z,41.59
2023-03-25T21:02:52.384Z,41.62
2023-03-25T21:05:20.278Z,41.66
2023-03-25T21:07:48.009Z,41.87
2023-03-25T21:10:15.614Z,42.16
2023-03-25T21:12:44.655Z,42.12
2023-03-25T21:15:14.105Z,42.38
2023-03-25T21:17:41.888Z,42.08
2023-03-25T21:20:10.476Z,42.09
2023-03-25T21:22:43.419Z,42.44
2023-03-25T21:25:13.173Z,42.35
2023-03-25T21:27:40.671Z,42.23
2023-03-25T21:30:09.990Z,42.18
2023-03-25T21:32:39.319Z,42.08
2023-03-25T21:35:08.175Z,42.03
2023-03-25T21:37:37.376Z,42.03
2023-03-25T21:40:06.715Z,41.86
2023-03-25T21:42:34.192Z,41.68
2023-03-25T21:45:01.688Z,42.18
2023-03-25T21:47:29.233Z,41.92
2023-03-25T21:49:56.822Z,42.03
2023-03-25T21:52:24.386Z,41.95
2023-03-25T21:54:52.088Z,42.20
2023-03-25T21:57:19.862Z,42.14
2023-03-25T21:59:47.517Z,42.19
2023-03-25T22:02:15.000Z,42.58
2023-03-25T22:04:42.549Z,42.48
2023-03-25T22:07:10.089Z,42.62
2023-03-25T22:09:37.748Z,42.74
2023-03-25T22:12:05.775Z,43.00
2023-03-25T22:14:33.613Z,42.79
2023-03-25T22:17:01.198Z,42.81
2023-03-25T22:19:28.808Z,42.67
2023-03-25T22:21:56.288Z,42.62
2023-03-25T22:24:23.806Z,42.86
2023-03-25T22:26:51.493Z,42.97
2023-03-25T22:29:18.996Z,42.63
2023-03-25T22:31:46.587Z,42.77
2023-03-25T22:34:15.883Z,42.93
2023-03-25T22:36:46.388Z,43.07
2023-03-25T22:39:14.202Z,43.01
2023-03-25T22:41:41.694Z,43.11
2023-03-25T22:44:09.428Z,43.63
2023-03-25T22:46:37.282Z,43.53
2023-03-25T22:49:04.873Z,43.58
2023-03-25T22:51:32.483Z,43.41
2023-03-25T22:54:00.677Z,43.57
2023-03-25T22:56:28.165Z,43.73
2023-03-25T22:58:55.680Z,43.88
2023-03-25T23:01:25.649Z,43.84
2023-03-25T23:03:55.147Z,43.65
2023-03-25T23:06:23.563Z,44.00
2023-03-25T23:08:51.193Z,44.13
2023-03-25T23:11:21.204Z,43.82
2023-03-25T23:13:57.338Z,43.95
2023-03-25T23:16:27.724Z,43.84
2023-03-25T23:18:55.482Z,44.20
2023-03-25T23:21:26.210Z,43.94
2023-03-25T23:23:56.388Z,44.34
2023-03-25T23:26:38.411Z,44.77
2023-03-25T23:29:09.111Z,44.67
2023-03-25T23:31:38.105Z,44.85
2023-03-25T23:34:09.128Z,44.88
2023-03-25T23:36:37.515Z,45.21
2023-03-25T23:39:10.930Z,44.99
2023-03-25T23:41:38.743Z,45.27
2023-03-25T23:44:06.953Z,45.14
2023-03-25T23:46:35.036Z,44.87
2023-03-25T23:49:02.650Z,45.17
2023-03-25T23:51:35.242Z,45.58
2023-03-25T23:54:04.131Z,45.32
2023-03-25T23:56:31.557Z,45.56
2023-03-25T23:59:00.442Z,45.31
